Historyczne dane pomiarowe

Dodano dane terminowe – wersja testowa.

Dane z okresu 1951-2019

Wersja bazy: 1.34 [2019-03-16, lista zmian], aktualizacja planowana na 2019-04-15

Dane meteo z obszaru Polski uzyskane na podstawie danych udostępnionych przez Instytut Meteorologii i Gospodarki Wodnej – Państwowy Instytut Badawczy.

 

Wybierz Datę:    

       

TemperaturaWilgotnośćWiatrCiśnienieOpadyŚniegCzas trwania zjawisk
 Stacja t tx tn tng RH VA  wxwx mslp ppp RRR   cm mm wxwxwxwxwxwxwx
1975-07-30 17.1 22.1 12.8- 82.3- 5.0 2.0---- 5.6------------
1975-07-29 19.0 23.8 15.0- 68.8- 4.7 1.7---- 0.0------------
1975-07-28 13.7 15.5 11.9- 92.0- 8.0 3.0---- 7.0------------
1975-07-27 13.3 17.3 10.9- 73.3- 7.7 1.7---- 12.9------------
1975-07-26 12.1 15.5 9.9- 86.5- 7.7 0.3---- 14.2------------
1975-07-25 14.4 24.9 12.8- 92.5- 8.0 1.0---- 34.8------------
1975-07-24 20.4 26.1 12.1- 68.3- 3.7 4.0---- 23.1------------
1975-07-23 17.8 24.2 12.1- 80.3- 3.7 1.7---- 0.0------------
1975-07-22 17.3 22.1 14.5- 84.5- 4.7 0.7---- 0.0------------
1975-07-21 14.9 16.0 14.0- 90.8- 8.0 1.7---- 13.7------------
1975-07-20 15.8 17.8 14.9- 87.0- 8.0 1.7---- 38.2------------
1975-07-19 17.3 22.7 13.9- 91.3- 7.7 2.0---- 38.0------------
1975-07-18 16.7 21.7 12.1- 87.5- 5.0 1.7---- 22.3------------
1975-07-17 18.1 23.4 11.8- 69.0- 3.7 3.0---- 0.0------------
1975-07-16 22.7 26.6 18.1- 63.3- 3.0 1.7---- 0.0------------
1975-07-15 21.6 27.7 14.3- 70.8- 3.3 3.3---- 2.2------------
1975-07-14 20.5 26.7 14.2- 71.3- 2.3 1.7---- 0.0------------
1975-07-13 18.8 23.1 15.9- 87.3- 6.7 0.3---- 0.8------------
1975-07-12 19.0 26.0 13.3- 71.0- 4.0 2.0---- 1.0------------
1975-07-11 18.4 24.5 13.6- 86.5- 7.0 0.7---- 0.2------------
1975-07-10 19.6 27.2 13.1- 71.3- 4.3 3.3---- 1.9------------
1975-07-09 18.3 25.6 10.0- 66.8- 0.0 1.7---- 0.0------------
1975-07-08 17.3 24.3 9.4- 70.8- 0.7 1.3---- 0.0------------
1975-07-07 16.7 23.5 10.0- 74.8- 3.3 2.0---- 0.0------------
1975-07-06 15.5 23.1 10.7- 83.3- 3.0 1.7---- 0.6------------
1975-07-05 17.6 23.9 10.6- 67.3- 1.7 1.7---- 0.0------------
1975-07-04 17.9 24.7 10.6- 72.5- 1.0 0.7---- 0.0------------
1975-07-03 18.0 23.8 12.7- 73.0- 4.0 1.3---- 0.0------------
1975-07-02 18.4 23.0 12.7- 67.5- 4.3 6.7---- 0.0------------
1975-07-01 12.4 13.2 11.2- 97.0- 8.0 5.7---- 35.2------------
1975-06-30 12.0 13.1 9.4- 88.3- 8.0 2.3---- 15.3------------
1975-06-29 12.0 17.0 10.5- 92.5- 8.0 2.3---- 4.5------------
1975-06-28 16.5 21.2 12.9- 86.0- 7.0 2.0---- 21.8------------
1975-06-27 17.9 24.9 9.5- 69.3- 0.0 2.0---- 0.0------------
1975-06-26 15.3 22.0 7.7- 71.3- 0.0 1.0---- 0.0------------
1975-06-25 17.4 22.1 15.9- 89.5- 7.0 0.0---- 33.1------------
1975-06-24 19.5 25.6 13.1- 75.5- 5.3 2.0---- 0.0------------
1975-06-23 18.2 26.4 13.5- 83.3- 5.3 1.7---- 0.0------------
1975-06-22 17.6 23.7 14.7- 90.5- 5.0 1.3---- 2.9------------
1975-06-21 18.0 22.7 16.0- 87.0- 5.7 1.0---- 12.3------------
1975-06-20 17.8 22.8 13.2- 88.8- 7.7 1.3---- 1.9------------
1975-06-19 15.0 16.5 13.3- 90.8- 8.0 3.0---- 2.2------------
1975-06-18 14.3 15.9 12.8- 87.3- 8.0 3.3---- 1.7------------
1975-06-17 14.8 19.5 12.7- 89.5- 8.0 2.3---- 6.8------------
1975-06-16 20.5 25.6 16.4- 67.0- 5.7 3.7---- 10.4------------
1975-06-15 19.5 26.8 13.8- 71.8- 4.3 1.7---- 0.0------------
1975-06-14 16.8 20.7 14.3- 83.5- 7.3 1.3---- 0.2------------
1975-06-13 16.6 24.3 11.1- 83.5- 4.0 3.0---- 6.8------------
1975-06-12 16.6 23.4 11.1- 84.5- 2.7 1.3---- 0.0------------
1975-06-11 16.0 21.7 9.8- 77.8- 3.7 2.0---- 0.0------------
1975-06-10 14.9 19.3 9.6- 78.3- 3.3 1.7---- 0.3------------
1975-06-09 14.2 17.4 10.6- 84.5- 6.0 1.0---- 0.0------------
1975-06-08 11.7 15.2 9.3- 91.3- 7.7 2.3---- 22.6------------
1975-06-07 11.1 13.4 9.1- 74.8- 8.0 3.7---- 17.6------------
1975-06-06 9.6 12.5 6.1- 73.8- 8.0 3.0---- 0.0------------
1975-06-05 10.6 13.9 7.8- 59.0- 5.3 4.3---- 0.0------------
1975-06-04 11.9 15.3 8.8- 59.8- 6.3 2.3---- 0.0------------
1975-06-03 10.9 16.1 4.5- 75.0- 4.7 1.3---- 0.0------------
1975-06-02 6.4 7.4 5.0- 91.5- 8.0 1.7---- 8.8------------
1975-06-01 7.6 12.8 5.5- 90.0- 8.0 3.3---- 12.5------------
440.5 ms

 

Źródłem pochodzenia danych jest Instytut Meteorologii i Gospodarki Wodnej – Państwowy Instytut Badawczy. Dane Instytutu Meteorologii i Gospodarki Wodnej – Państwowego Instytutu Badawczego zostały przetworzone.

Dane źródłowe można odnaleźć na stronie https://dane.imgw.pl